createdAt,value
2022-12-17T00:00:43.739Z,51.35
2022-12-17T00:03:30.106Z,53.55
2022-12-17T00:06:16.205Z,51.42
2022-12-17T00:09:01.961Z,54.42
2022-12-17T00:11:47.849Z,53.95
2022-12-17T00:14:33.911Z,53.67
2022-12-17T00:17:19.808Z,54.67
2022-12-17T00:20:05.684Z,50.63
2022-12-17T00:22:51.374Z,53.25
2022-12-17T00:25:37.226Z,50.95
2022-12-17T00:28:28.955Z,54.35
2022-12-17T00:31:28.533Z,53.72
2022-12-17T00:34:14.765Z,55.90
2022-12-17T00:37:00.601Z,58.63
2022-12-17T00:39:46.400Z,53.28
2022-12-17T00:42:32.276Z,57.08
2022-12-17T00:45:18.675Z,53.88
2022-12-17T00:48:06.580Z,55.10
2022-12-17T00:50:52.945Z,51.45
2022-12-17T00:53:39.060Z,53.95
2022-12-17T00:56:25.232Z,56.00
2022-12-17T00:59:11.082Z,53.10
2022-12-17T01:01:57.005Z,51.38
2022-12-17T01:04:42.741Z,54.75
2022-12-17T01:07:28.557Z,52.17
2022-12-17T01:10:14.404Z,54.33
2022-12-17T01:13:00.873Z,50.45
2022-12-17T01:15:46.866Z,49.97
2022-12-17T01:18:37.578Z,50.90
2022-12-17T01:21:23.788Z,49.25
2022-12-17T01:24:09.533Z,50.88
2022-12-17T01:26:56.257Z,48.83
2022-12-17T01:29:42.375Z,50.88
2022-12-17T01:32:28.504Z,58.13
2022-12-17T01:35:14.354Z,55.47
2022-12-17T01:38:00.354Z,49.80
2022-12-17T01:40:46.062Z,50.03
2022-12-17T01:43:31.995Z,50.58
2022-12-17T01:46:18.284Z,53.25
2022-12-17T01:49:06.122Z,53.50
2022-12-17T01:51:52.202Z,49.60
2022-12-17T01:54:37.953Z,53.35
2022-12-17T01:57:24.787Z,56.25
2022-12-17T02:00:28.202Z,54.92
2022-12-17T02:03:15.821Z,56.30
2022-12-17T02:06:29.953Z,53.30
2022-12-17T02:09:53.600Z,66.28
2022-12-17T02:12:42.801Z,51.35
2022-12-17T02:15:36.646Z,54.60
2022-12-17T02:18:25.212Z,55.65
2022-12-17T02:21:12.023Z,57.60
2022-12-17T02:24:10.557Z,57.03
2022-12-17T02:27:04.387Z,49.20
2022-12-17T02:29:52.474Z,57.33
2022-12-17T02:32:38.793Z,53.95
2022-12-17T02:35:30.583Z,55.60
2022-12-17T02:38:16.375Z,54.05
2022-12-17T02:41:02.219Z,54.05
2022-12-17T02:43:47.966Z,49.40
2022-12-17T02:46:33.790Z,53.00
2022-12-17T02:49:19.742Z,52.63
2022-12-17T02:52:06.603Z,55.55
2022-12-17T02:54:52.293Z,52.22
2022-12-17T02:57:43.578Z,52.67
2022-12-17T03:00:30.858Z,54.58
2022-12-17T03:03:18.129Z,53.35
2022-12-17T03:06:03.880Z,52.47
2022-12-17T03:08:49.732Z,55.72
2022-12-17T03:11:36.250Z,57.63
2022-12-17T03:14:22.245Z,53.40
2022-12-17T03:17:08.134Z,56.08
2022-12-17T03:19:53.917Z,59.00
2022-12-17T03:22:39.861Z,53.30
2022-12-17T03:25:26.164Z,58.25
2022-12-17T03:28:11.831Z,59.83
2022-12-17T03:30:57.666Z,56.13
2022-12-17T03:33:43.492Z,60.10
2022-12-17T03:36:29.205Z,54.40
2022-12-17T03:39:15.064Z,51.95
2022-12-17T03:42:00.756Z,52.22
2022-12-17T03:44:46.614Z,54.15
2022-12-17T03:47:32.168Z,54.63
2022-12-17T03:50:17.795Z,53.28
2022-12-17T03:53:03.651Z,56.88
2022-12-17T03:55:49.720Z,57.97
2022-12-17T03:58:35.602Z,56.42
2022-12-17T04:01:21.858Z,55.22
2022-12-17T04:04:07.892Z,59.35
2022-12-17T04:06:53.943Z,56.00
2022-12-17T04:09:39.605Z,53.92
2022-12-17T04:12:25.998Z,57.60
2022-12-17T04:15:11.898Z,58.10
2022-12-17T04:17:57.580Z,54.95
2022-12-17T04:20:43.331Z,52.88
2022-12-17T04:23:29.148Z,62.67
2022-12-17T04:26:14.910Z,51.92
2022-12-17T04:29:00.754Z,56.55
2022-12-17T04:31:46.483Z,54.17
2022-12-17T04:34:32.386Z,61.90
2022-12-17T04:37:18.199Z,54.10
2022-12-17T04:40:04.246Z,55.78
2022-12-17T04:42:49.913Z,52.17
2022-12-17T04:45:35.706Z,58.83
2022-12-17T04:48:23.024Z,58.88
2022-12-17T04:51:08.934Z,59.42
2022-12-17T04:53:54.739Z,55.10
2022-12-17T04:56:40.659Z,56.85
2022-12-17T04:59:26.574Z,58.40
2022-12-17T05:02:12.667Z,58.45
2022-12-17T05:04:58.560Z,62.28
2022-12-17T05:07:44.893Z,60.97
2022-12-17T05:10:30.954Z,62.60
2022-12-17T05:13:17.731Z,58.55
2022-12-17T05:16:03.645Z,62.00
2022-12-17T05:18:50.093Z,56.70
2022-12-17T05:21:35.887Z,62.75
2022-12-17T05:24:21.637Z,60.45
2022-12-17T05:27:07.466Z,64.28
2022-12-17T05:29:53.301Z,60.90
2022-12-17T05:32:39.351Z,74.75
2022-12-17T05:35:25.590Z,62.50
2022-12-17T05:38:11.230Z,67.13
2022-12-17T05:40:57.135Z,67.97
2022-12-17T05:43:42.963Z,65.00
2022-12-17T05:46:28.662Z,63.42
2022-12-17T05:49:14.441Z,61.78
2022-12-17T05:52:00.233Z,63.17
2022-12-17T05:54:46.247Z,66.00
2022-12-17T05:57:31.962Z,59.58
2022-12-17T06:00:17.568Z,59.85
2022-12-17T06:03:03.447Z,60.25
2022-12-17T06:05:49.230Z,62.00
2022-12-17T06:08:35.205Z,64.53
2022-12-17T06:11:20.994Z,69.50
2022-12-17T06:14:06.733Z,59.45
2022-12-17T06:16:52.881Z,60.78
2022-12-17T06:19:38.819Z,58.65
2022-12-17T06:22:24.481Z,60.85
2022-12-17T06:25:11.620Z,64.65
2022-12-17T06:27:57.374Z,62.45
2022-12-17T06:30:43.219Z,64.15
2022-12-17T06:33:29.511Z,64.22
2022-12-17T06:36:21.950Z,56.53
2022-12-17T06:39:09.058Z,61.30
2022-12-17T06:42:02.177Z,57.60
2022-12-17T06:44:49.992Z,58.42
2022-12-17T06:47:36.276Z,58.20
2022-12-17T06:50:23.035Z,52.60
2022-12-17T06:53:19.959Z,57.30
2022-12-17T06:56:05.769Z,60.08
2022-12-17T06:58:51.673Z,57.17
2022-12-17T07:01:37.628Z,55.13
2022-12-17T07:04:23.863Z,61.97
2022-12-17T07:07:09.538Z,56.55
2022-12-17T07:09:55.396Z,57.13
2022-12-17T07:12:43.277Z,55.40
2022-12-17T07:15:29.129Z,57.20
2022-12-17T07:18:20.269Z,52.75
2022-12-17T07:21:06.199Z,52.90
2022-12-17T07:23:52.073Z,54.60
2022-12-17T07:26:37.955Z,56.63
2022-12-17T07:29:23.724Z,53.78
2022-12-17T07:32:09.594Z,58.22
2022-12-17T07:34:55.501Z,53.30
2022-12-17T07:37:41.333Z,55.00
2022-12-17T07:40:27.897Z,51.25
2022-12-17T07:43:13.726Z,56.05
2022-12-17T07:45:59.781Z,54.47
2022-12-17T07:48:45.909Z,58.65
2022-12-17T07:51:31.750Z,53.00
2022-12-17T07:54:17.805Z,61.13
2022-12-17T07:57:03.685Z,58.78
2022-12-17T07:59:49.397Z,57.60
2022-12-17T08:02:35.430Z,59.53
2022-12-17T08:05:21.514Z,56.90
2022-12-17T08:08:07.171Z,57.35
2022-12-17T08:10:53.032Z,57.58
2022-12-17T08:13:39.979Z,62.00
2022-12-17T08:16:26.408Z,59.08
2022-12-17T08:19:12.304Z,54.92
2022-12-17T08:21:58.101Z,59.00
2022-12-17T08:24:43.810Z,58.78
2022-12-17T08:27:29.690Z,59.72
2022-12-17T08:30:15.430Z,59.55
2022-12-17T08:33:01.286Z,61.03
2022-12-17T08:35:47.015Z,58.60
2022-12-17T08:38:32.961Z,60.67
2022-12-17T08:41:19.765Z,63.72
2022-12-17T08:44:05.597Z,58.45
2022-12-17T08:46:51.426Z,65.70
2022-12-17T08:49:37.192Z,58.08
2022-12-17T08:52:23.285Z,57.63
2022-12-17T08:55:09.068Z,57.10
2022-12-17T08:57:54.866Z,62.30
2022-12-17T09:00:40.598Z,61.20
2022-12-17T09:03:27.276Z,62.20
2022-12-17T09:06:13.168Z,61.50
2022-12-17T09:08:58.881Z,57.58
2022-12-17T09:11:44.790Z,58.25
2022-12-17T09:14:30.687Z,56.08
2022-12-17T09:17:16.669Z,63.13
2022-12-17T09:20:02.520Z,61.10
2022-12-17T09:23:08.293Z,59.03
2022-12-17T09:25:58.122Z,57.60
2022-12-17T09:28:44.117Z,64.80
2022-12-17T09:31:37.907Z,58.45
2022-12-17T09:34:23.961Z,49.00
2022-12-17T09:37:09.690Z,63.17
2022-12-17T09:39:56.485Z,53.78
2022-12-17T09:43:27.574Z,59.58
2022-12-17T09:46:21.511Z,58.95
2022-12-17T09:49:22.061Z,62.65
2022-12-17T09:52:07.915Z,55.42
2022-12-17T09:55:07.366Z,57.53
2022-12-17T09:57:54.432Z,58.75
2022-12-17T10:00:41.633Z,60.60
2022-12-17T10:03:31.396Z,62.33
2022-12-17T10:06:22.525Z,56.90
2022-12-17T10:09:09.645Z,56.75
2022-12-17T10:11:56.454Z,60.92
2022-12-17T10:14:42.527Z,63.47
2022-12-17T10:17:39.335Z,63.88
2022-12-17T10:20:48.826Z,62.38
2022-12-17T10:23:48.191Z,60.55
2022-12-17T10:26:41.992Z,62.33
2022-12-17T10:29:32.900Z,61.53
2022-12-17T10:32:40.324Z,54.60
2022-12-17T10:35:33.733Z,61.53
2022-12-17T10:38:20.347Z,62.85
2022-12-17T10:41:06.550Z,56.55
2022-12-17T10:43:53.197Z,57.28
2022-12-17T10:46:57.069Z,56.92
2022-12-17T10:49:43.537Z,60.70
2022-12-17T10:52:44.638Z,57.60
2022-12-17T10:55:44.875Z,61.63
2022-12-17T10:58:41.021Z,56.95
2022-12-17T11:01:30.440Z,57.92
2022-12-17T11:04:17.044Z,57.08
2022-12-17T11:07:07.677Z,58.42
2022-12-17T11:10:08.481Z,61.55
2022-12-17T11:13:29.942Z,62.72
2022-12-17T11:16:17.184Z,53.85
2022-12-17T11:19:16.783Z,57.63
2022-12-17T11:22:04.022Z,59.75
2022-12-17T11:24:57.385Z,59.65
2022-12-17T11:27:46.277Z,61.53
2022-12-17T11:30:35.544Z,59.17
2022-12-17T11:33:40.412Z,58.65
2022-12-17T11:39:57.536Z,56.45
2022-12-17T11:43:29.936Z,58.13
2022-12-17T11:46:24.927Z,58.75
2022-12-17T11:49:48.109Z,60.40
2022-12-17T11:52:37.066Z,60.33
2022-12-17T11:55:35.492Z,58.92
2022-12-17T11:58:30.505Z,60.47
2022-12-17T12:01:39.022Z,62.58
2022-12-17T12:04:31.696Z,58.45
2022-12-17T12:07:32.978Z,58.00
2022-12-17T12:10:30.390Z,60.13
2022-12-17T12:13:38.346Z,61.63
2022-12-17T12:16:52.223Z,64.13
2022-12-17T12:20:06.247Z,59.05
2022-12-17T12:23:02.814Z,34.47
2022-12-17T12:26:02.782Z,32.92
2022-12-17T12:29:06.638Z,51.63
2022-12-17T12:31:58.950Z,57.78
2022-12-17T12:34:52.348Z,54.42
2022-12-17T12:37:38.354Z,63.30
2022-12-17T12:40:30.475Z,55.80
2022-12-17T12:43:23.787Z,55.85
2022-12-17T12:46:41.935Z,61.25
2022-12-17T12:49:52.758Z,58.90
2022-12-17T12:52:43.426Z,61.72
2022-12-17T12:55:29.197Z,65.30
2022-12-17T12:58:21.731Z,63.17
2022-12-17T13:01:07.643Z,62.45
2022-12-17T13:03:56.590Z,68.60
2022-12-17T13:06:39.277Z,69.78
2022-12-17T13:09:15.563Z,70.97
2022-12-17T13:11:43.736Z,76.20
2022-12-17T13:14:19.329Z,69.07
2022-12-17T13:17:01.796Z,75.65
2022-12-17T13:19:36.736Z,71.13
2022-12-17T13:22:23.315Z,76.55
2022-12-17T13:24:52.907Z,73.38
2022-12-17T13:27:39.792Z,79.40
2022-12-17T13:30:22.075Z,71.97
2022-12-17T13:33:23.130Z,71.70
2022-12-17T13:36:15.623Z,69.65
2022-12-17T13:38:51.805Z,68.97
2022-12-17T13:41:20.381Z,72.93
2022-12-17T13:43:56.991Z,70.82
2022-12-17T13:46:29.060Z,72.07
2022-12-17T13:49:01.088Z,68.88
2022-12-17T13:51:30.478Z,72.28
2022-12-17T13:53:59.338Z,78.47
2022-12-17T13:56:35.766Z,80.43
2022-12-17T13:59:09.100Z,72.50
2022-12-17T14:04:28.369Z,77.18
2022-12-17T14:07:00.112Z,74.22
2022-12-17T14:09:39.214Z,73.60
2022-12-17T14:12:22.261Z,74.20
2022-12-17T14:14:58.354Z,76.13
2022-12-17T14:17:30.256Z,77.32
2022-12-17T14:20:19.009Z,74.78
2022-12-17T14:22:51.786Z,78.93
2022-12-17T14:25:21.076Z,78.13
2022-12-17T14:27:56.764Z,77.30
2022-12-17T14:30:31.171Z,80.30
2022-12-17T14:32:59.012Z,81.40
2022-12-17T14:35:31.573Z,76.35
2022-12-17T14:37:58.902Z,80.13
2022-12-17T14:40:26.468Z,78.97
2022-12-17T14:42:57.684Z,78.13
2022-12-17T14:45:26.019Z,82.15
2022-12-17T14:48:00.750Z,80.63
2022-12-17T14:50:35.215Z,79.88
2022-12-17T14:53:04.571Z,74.57
2022-12-17T14:55:33.192Z,82.15
2022-12-17T14:58:12.810Z,81.75
2022-12-17T15:01:06.044Z,85.97
2022-12-17T15:03:37.232Z,85.15
2022-12-17T15:06:06.761Z,88.80
2022-12-17T15:08:40.047Z,82.45
2022-12-17T15:11:07.715Z,89.57
2022-12-17T15:13:35.067Z,80.35
2022-12-17T15:16:02.383Z,82.70
2022-12-17T15:18:29.672Z,88.90
2022-12-17T15:20:57.013Z,92.85
2022-12-17T15:23:24.690Z,87.60
2022-12-17T15:25:52.954Z,91.65
2022-12-17T15:28:20.603Z,92.70
2022-12-17T15:30:48.296Z,87.60
2022-12-17T15:33:15.762Z,89.70
2022-12-17T15:35:43.548Z,82.82
2022-12-17T15:38:11.626Z,87.63
2022-12-17T15:40:38.987Z,84.97
2022-12-17T15:43:12.504Z,86.28
2022-12-17T15:45:45.061Z,85.93
2022-12-17T15:48:13.685Z,88.80
2022-12-17T15:50:41.061Z,84.47
2022-12-17T15:53:09.310Z,85.68
2022-12-17T15:55:37.301Z,88.65
2022-12-17T15:58:05.102Z,98.18
2022-12-17T16:00:32.478Z,91.95
2022-12-17T16:02:59.852Z,89.53
2022-12-17T16:05:27.302Z,87.93
2022-12-17T16:07:58.906Z,90.95
2022-12-17T16:10:26.393Z,85.20
2022-12-17T16:12:53.797Z,93.40
2022-12-17T16:15:21.088Z,92.25
2022-12-17T16:17:48.452Z,83.13
2022-12-17T16:20:15.780Z,91.95
2022-12-17T16:22:43.180Z,93.72
2022-12-17T16:25:10.523Z,87.22
2022-12-17T16:27:37.960Z,90.15
2022-12-17T16:30:05.868Z,91.50
2022-12-17T16:32:36.612Z,97.78
2022-12-17T16:35:05.217Z,86.45
2022-12-17T16:37:32.583Z,90.82
2022-12-17T16:40:00.537Z,94.78
2022-12-17T16:42:28.645Z,95.40
2022-12-17T16:44:55.945Z,93.45
2022-12-17T16:47:23.394Z,99.05
2022-12-17T16:49:50.852Z,93.78
2022-12-17T16:52:18.233Z,96.15
2022-12-17T16:54:45.542Z,93.28
2022-12-17T16:57:12.825Z,101.63
2022-12-17T16:59:40.167Z,111.60
2022-12-17T17:02:14.163Z,97.78
2022-12-17T17:04:41.649Z,97.22
2022-12-17T17:07:08.991Z,91.90
2022-12-17T17:09:36.866Z,86.47
2022-12-17T17:12:04.424Z,89.20
2022-12-17T17:14:31.726Z,90.10
2022-12-17T17:16:59.515Z,83.53
2022-12-17T17:19:26.850Z,81.07
2022-12-17T17:21:54.536Z,81.53
2022-12-17T17:24:23.949Z,85.10
2022-12-17T17:26:51.640Z,94.45
2022-12-17T17:29:19.066Z,85.68
2022-12-17T17:32:09.194Z,87.70
2022-12-17T17:34:36.863Z,89.85
2022-12-17T17:37:04.166Z,85.20
2022-12-17T17:39:34.644Z,80.00
2022-12-17T17:42:02.197Z,79.30
2022-12-17T17:44:29.467Z,84.68
2022-12-17T17:46:56.846Z,78.68
2022-12-17T17:49:24.208Z,75.22
2022-12-17T17:52:08.826Z,75.90
2022-12-17T17:54:39.470Z,74.53
2022-12-17T17:57:07.202Z,70.55
2022-12-17T17:59:34.680Z,84.28
2022-12-17T18:02:02.850Z,78.18
2022-12-17T18:04:30.602Z,77.80
2022-12-17T18:09:45.202Z,77.80
2022-12-17T18:12:31.030Z,86.40
2022-12-17T18:15:14.805Z,85.32
2022-12-17T18:17:46.817Z,84.82
2022-12-17T18:20:14.274Z,81.63
2022-12-17T18:22:41.750Z,80.28
2022-12-17T18:25:09.141Z,79.30
2022-12-17T18:27:36.776Z,81.40
2022-12-17T18:30:04.622Z,92.70
2022-12-17T18:32:32.029Z,83.57
2022-12-17T18:34:59.806Z,91.60
2022-12-17T18:37:27.206Z,111.15
2022-12-17T18:39:54.500Z,94.63
2022-12-17T18:42:40.321Z,94.32
2022-12-17T18:45:08.082Z,112.70
2022-12-17T18:47:35.381Z,104.47
2022-12-17T18:50:02.866Z,98.18
2022-12-17T18:52:30.346Z,95.15
2022-12-17T18:54:57.741Z,100.15
2022-12-17T18:57:25.060Z,97.18
2022-12-17T18:59:53.558Z,103.22
2022-12-17T19:02:20.996Z,103.45
2022-12-17T19:04:48.352Z,105.05
2022-12-17T19:07:15.692Z,119.32
2022-12-17T19:09:43.037Z,99.78
2022-12-17T19:12:10.492Z,105.80
2022-12-17T19:14:37.930Z,100.80
2022-12-17T19:17:06.056Z,103.93
2022-12-17T19:19:33.610Z,104.72
2022-12-17T19:22:01.007Z,108.25
2022-12-17T19:24:28.438Z,100.15
2022-12-17T19:26:55.778Z,108.13
2022-12-17T19:29:23.168Z,114.82
2022-12-17T19:31:50.551Z,104.32
2022-12-17T19:34:18.468Z,98.22
2022-12-17T19:36:46.142Z,96.10
2022-12-17T19:39:15.245Z,97.30
2022-12-17T19:41:42.610Z,102.90
2022-12-17T19:44:12.497Z,98.75
2022-12-17T19:46:40.088Z,106.55
2022-12-17T19:49:08.430Z,98.70
2022-12-17T19:51:39.599Z,105.28
2022-12-17T19:54:09.199Z,102.55
2022-12-17T19:56:36.961Z,102.53
2022-12-17T19:59:07.373Z,100.47
2022-12-17T20:01:36.944Z,106.03
2022-12-17T20:04:04.993Z,98.07
2022-12-17T20:06:33.239Z,95.70
2022-12-17T20:09:01.255Z,102.15
2022-12-17T20:11:35.048Z,104.60
2022-12-17T20:14:02.623Z,107.60
2022-12-17T20:16:30.674Z,106.80
2022-12-17T20:19:01.632Z,112.35
2022-12-17T20:21:29.093Z,97.15
2022-12-17T20:23:56.503Z,102.05
2022-12-17T20:26:24.099Z,107.63
2022-12-17T20:28:51.685Z,99.40
2022-12-17T20:31:26.664Z,98.88
2022-12-17T20:33:54.022Z,102.38
2022-12-17T20:36:21.630Z,101.57
2022-12-17T20:38:49.075Z,112.45
2022-12-17T20:41:21.009Z,104.13
2022-12-17T20:43:48.686Z,96.47
2022-12-17T20:46:16.689Z,96.00
2022-12-17T20:48:44.404Z,88.50
2022-12-17T20:51:17.289Z,86.25
2022-12-17T20:53:44.941Z,91.35
2022-12-17T20:56:14.105Z,88.20
2022-12-17T20:58:41.923Z,89.15
2022-12-17T21:01:18.564Z,94.85
2022-12-17T21:03:46.638Z,82.22
2022-12-17T21:06:15.819Z,71.57
2022-12-17T21:08:49.143Z,77.80
2022-12-17T21:13:51.732Z,73.20
2022-12-17T21:16:21.109Z,74.28
2022-12-17T21:18:48.599Z,73.60
2022-12-17T21:21:18.134Z,74.20
2022-12-17T21:23:46.309Z,66.55
2022-12-17T21:26:18.175Z,86.90
2022-12-17T21:28:46.334Z,64.63
2022-12-17T21:31:23.600Z,65.40
2022-12-17T21:33:51.731Z,69.60
2022-12-17T21:36:19.873Z,59.67
2022-12-17T21:38:47.438Z,67.57
2022-12-17T21:41:16.517Z,64.38
2022-12-17T21:43:44.074Z,62.33
2022-12-17T21:46:11.543Z,66.68
2022-12-17T21:48:42.213Z,61.53
2022-12-17T21:51:11.893Z,65.75
2022-12-17T21:53:42.369Z,65.75
2022-12-17T21:56:11.916Z,62.13
2022-12-17T21:58:40.104Z,69.78
2022-12-17T22:01:19.342Z,60.90
2022-12-17T22:03:53.513Z,54.22
2022-12-17T22:06:24.266Z,55.40
2022-12-17T22:08:56.615Z,60.43
2022-12-17T22:11:26.145Z,61.15
2022-12-17T22:14:07.257Z,64.20
2022-12-17T22:16:39.052Z,69.40
2022-12-17T22:19:07.522Z,62.55
2022-12-17T22:21:35.655Z,63.88
2022-12-17T22:24:03.257Z,59.33
2022-12-17T22:26:30.714Z,62.80
2022-12-17T22:28:58.022Z,66.80
2022-12-17T22:31:43.758Z,63.90
2022-12-17T22:35:22.702Z,62.03
2022-12-17T22:39:15.062Z,69.28
2022-12-17T22:44:36.168Z,67.60
2022-12-17T22:44:41.788Z,66.50
2022-12-17T22:45:40.942Z,68.93
2022-12-17T22:48:15.024Z,69.38
2022-12-17T22:50:45.623Z,71.03
2022-12-17T22:53:19.261Z,69.68
2022-12-17T22:55:47.012Z,68.13
2022-12-17T22:58:14.643Z,71.50
2022-12-17T23:00:41.954Z,65.35
2022-12-17T23:03:09.386Z,65.00
2022-12-17T23:05:36.903Z,65.10
2022-12-17T23:08:04.399Z,60.83
2022-12-17T23:10:31.745Z,72.32
2022-12-17T23:12:59.115Z,70.75
2022-12-17T23:15:33.018Z,76.38
2022-12-17T23:20:29.591Z,80.65
2022-12-17T23:22:56.896Z,82.45
2022-12-17T23:25:24.320Z,86.97
2022-12-17T23:27:51.936Z,84.40
2022-12-17T23:30:19.394Z,72.28
2022-12-17T23:32:46.796Z,73.85
2022-12-17T23:35:14.210Z,75.22
2022-12-17T23:37:44.710Z,76.53
2022-12-17T23:40:12.470Z,80.07
2022-12-17T23:42:39.849Z,80.20
2022-12-17T23:45:07.746Z,90.63
2022-12-17T23:47:35.076Z,85.15
2022-12-17T23:50:02.366Z,88.43
2022-12-17T23:52:29.738Z,89.60
2022-12-17T23:55:05.288Z,95.45
2022-12-17T23:57:32.881Z,99.70
